createdAt,value
2023-01-19T00:00:13.096Z,81.77
2023-01-19T00:08:56.046Z,82.02
2023-01-19T00:17:19.256Z,81.96
2023-01-19T00:25:44.234Z,81.73
2023-01-19T00:34:07.954Z,81.82
2023-01-19T00:42:46.155Z,81.77
2023-01-19T00:51:09.165Z,81.80
2023-01-19T00:59:32.214Z,81.50
2023-01-19T01:07:55.305Z,81.62
2023-01-19T01:16:18.336Z,81.71
2023-01-19T01:24:41.276Z,81.50
2023-01-19T01:33:04.131Z,81.64
2023-01-19T01:41:27.799Z,81.69
2023-01-19T01:50:03.296Z,81.65
2023-01-19T01:58:27.122Z,81.45
2023-01-19T02:07:09.318Z,81.20
2023-01-19T02:15:33.766Z,81.32
2023-01-19T02:23:59.013Z,81.36
2023-01-19T02:32:21.888Z,81.33
2023-01-19T02:40:47.379Z,81.08
2023-01-19T02:49:10.269Z,81.17
2023-01-19T02:58:09.954Z,81.05
2023-01-19T03:06:39.039Z,81.10
2023-01-19T03:15:37.697Z,81.18
2023-01-19T03:24:04.104Z,80.97
2023-01-19T03:32:37.745Z,81.17
2023-01-19T03:41:05.331Z,81.23
2023-01-19T03:49:31.663Z,81.24
2023-01-19T03:57:54.630Z,81.24
2023-01-19T04:06:18.580Z,81.31
2023-01-19T04:14:42.786Z,81.29
2023-01-19T04:23:05.728Z,81.03
2023-01-19T04:31:28.605Z,81.41
2023-01-19T04:39:51.598Z,81.35
2023-01-19T04:48:15.469Z,81.29
2023-01-19T04:56:38.729Z,81.38
2023-01-19T05:05:02.238Z,81.39
2023-01-19T05:13:25.298Z,81.41
2023-01-19T05:21:48.236Z,81.31
2023-01-19T05:30:13.333Z,81.44
2023-01-19T05:38:36.319Z,81.60
2023-01-19T05:46:59.312Z,81.87
2023-01-19T05:55:22.407Z,81.80
2023-01-19T06:03:45.354Z,81.78
2023-01-19T06:12:08.405Z,81.75
2023-01-19T06:20:31.322Z,81.69
2023-01-19T06:28:59.524Z,81.81
2023-01-19T06:37:26.918Z,81.72
2023-01-19T06:45:53.364Z,81.82
2023-01-19T06:54:17.588Z,81.93
2023-01-19T07:02:44.875Z,82.05
2023-01-19T07:11:26.219Z,81.76
2023-01-19T07:20:07.699Z,82.03
2023-01-19T07:28:31.732Z,81.80
2023-01-19T07:36:56.178Z,82.05
2023-01-19T07:45:20.928Z,81.79
2023-01-19T07:53:45.181Z,82.16
2023-01-19T08:02:11.716Z,82.05
2023-01-19T08:10:35.288Z,82.07
2023-01-19T08:18:58.369Z,82.08
2023-01-19T08:27:21.825Z,82.12
2023-01-19T08:35:49.078Z,82.31
2023-01-19T08:44:12.113Z,82.09
2023-01-19T08:52:35.763Z,82.40
2023-01-19T09:01:00.696Z,82.28
2023-01-19T09:09:25.058Z,82.34
2023-01-19T09:17:47.965Z,82.08
2023-01-19T09:26:11.748Z,82.19
2023-01-19T09:34:35.316Z,82.35
2023-01-19T09:43:14.289Z,82.16
2023-01-19T09:51:41.990Z,82.22
2023-01-19T10:00:18.221Z,82.16
2023-01-19T10:08:53.142Z,82.06
2023-01-19T10:17:38.930Z,82.08
2023-01-19T10:26:14.651Z,82.28
2023-01-19T10:34:37.632Z,82.23
2023-01-19T10:43:01.019Z,82.14
2023-01-19T10:51:24.618Z,82.40
2023-01-19T10:59:52.460Z,82.25
2023-01-19T11:08:29.770Z,82.08
2023-01-19T11:16:58.256Z,82.10
2023-01-19T11:25:32.939Z,82.42
2023-01-19T11:34:01.123Z,82.46
2023-01-19T11:42:25.641Z,82.37
2023-01-19T11:50:50.176Z,82.29
2023-01-19T11:59:14.057Z,82.44
2023-01-19T12:07:38.866Z,82.49
2023-01-19T12:16:20.125Z,82.28
2023-01-19T12:24:56.442Z,82.20
2023-01-19T12:33:35.231Z,82.20
2023-01-19T12:42:17.566Z,82.29
2023-01-19T12:50:46.745Z,82.47
2023-01-19T12:59:25.595Z,82.51
2023-01-19T13:08:07.326Z,82.48
2023-01-19T13:16:31.676Z,82.36
2023-01-19T13:25:11.015Z,82.36
2023-01-19T13:33:44.154Z,82.35
2023-01-19T13:42:15.986Z,82.35
2023-01-19T13:50:40.202Z,82.29
2023-01-19T13:59:05.142Z,82.29
2023-01-19T14:07:28.069Z,82.33
2023-01-19T14:15:55.211Z,82.41
2023-01-19T14:24:24.953Z,82.38
2023-01-19T14:32:47.882Z,82.10
2023-01-19T14:41:13.615Z,82.18
2023-01-19T14:49:40.406Z,82.16
2023-01-19T14:58:16.622Z,82.10
2023-01-19T15:06:43.290Z,82.21
2023-01-19T15:15:13.021Z,82.17
2023-01-19T15:23:36.065Z,81.98
2023-01-19T15:31:59.440Z,81.94
2023-01-19T15:40:23.490Z,82.02
2023-01-19T15:48:48.226Z,81.99
2023-01-19T15:57:11.291Z,82.00
2023-01-19T16:05:42.483Z,81.90
2023-01-19T16:14:06.334Z,81.89
2023-01-19T16:22:31.807Z,82.06
2023-01-19T16:30:55.266Z,81.97
2023-01-19T16:39:18.424Z,81.88
2023-01-19T16:47:41.352Z,81.74
2023-01-19T16:56:09.137Z,81.93
2023-01-19T17:04:32.259Z,81.87
2023-01-19T17:12:55.594Z,81.74
2023-01-19T17:21:23.262Z,81.78
2023-01-19T17:29:47.669Z,81.70
2023-01-19T17:38:12.770Z,81.72
2023-01-19T17:46:43.968Z,81.82
2023-01-19T17:55:08.135Z,81.79
2023-01-19T18:03:32.050Z,81.86
2023-01-19T18:11:57.131Z,81.76
2023-01-19T18:20:20.806Z,81.68
2023-01-19T18:28:44.775Z,81.90
2023-01-19T18:37:07.745Z,81.98
2023-01-19T18:45:30.801Z,81.82
2023-01-19T18:53:54.248Z,81.83
2023-01-19T19:02:17.454Z,81.86
2023-01-19T19:10:41.817Z,81.73
2023-01-19T19:19:05.041Z,81.86
2023-01-19T19:27:28.004Z,81.87
2023-01-19T19:35:56.624Z,81.87
2023-01-19T19:44:19.452Z,81.81
2023-01-19T19:52:42.429Z,81.86
2023-01-19T20:01:13.594Z,81.93
2023-01-19T20:09:37.115Z,81.84
2023-01-19T20:17:59.992Z,82.02
2023-01-19T20:26:26.866Z,81.88
2023-01-19T20:34:49.833Z,81.88
2023-01-19T20:43:12.946Z,81.94
2023-01-19T20:51:44.013Z,81.91
2023-01-19T21:00:28.413Z,81.88
2023-01-19T21:08:51.920Z,82.02
2023-01-19T21:17:15.015Z,81.98
2023-01-19T21:25:38.396Z,82.07
2023-01-19T21:34:01.650Z,82.08
2023-01-19T21:42:24.626Z,81.91
2023-01-19T21:50:56.669Z,82.07
2023-01-19T21:59:20.443Z,81.89
2023-01-19T22:07:44.005Z,81.85
2023-01-19T22:16:16.778Z,82.07
2023-01-19T22:24:39.943Z,81.86
2023-01-19T22:33:02.904Z,82.06
2023-01-19T22:41:29.260Z,82.12
2023-01-19T22:49:52.183Z,82.08
2023-01-19T22:58:15.184Z,82.23
2023-01-19T23:06:38.695Z,81.94
2023-01-19T23:15:01.763Z,81.95
2023-01-19T23:23:24.758Z,82.02
2023-01-19T23:31:49.227Z,82.08
2023-01-19T23:40:12.554Z,81.93
2023-01-19T23:48:36.095Z,82.17
2023-01-19T23:56:59.309Z,82.04
